sensor_id;sensor_type;location;lat;lon;timestamp;temperature;humidity
27671;DHT22;15077;49.704;9.908;2023-06-19T00:02:21;26.40;43.60
27671;DHT22;15077;49.704;9.908;2023-06-19T00:04:47;26.40;43.60
27671;DHT22;15077;49.704;9.908;2023-06-19T00:07:13;26.30;43.60
27671;DHT22;15077;49.704;9.908;2023-06-19T00:09:39;26.30;43.70
27671;DHT22;15077;49.704;9.908;2023-06-19T00:12:05;26.30;43.80
27671;DHT22;15077;49.704;9.908;2023-06-19T00:14:31;26.30;43.80
27671;DHT22;15077;49.704;9.908;2023-06-19T00:16:58;26.30;43.90
27671;DHT22;15077;49.704;9.908;2023-06-19T00:19:26;26.30;43.90
27671;DHT22;15077;49.704;9.908;2023-06-19T00:21:52;26.30;44.10
27671;DHT22;15077;49.704;9.908;2023-06-19T00:24:23;26.20;44.00
27671;DHT22;15077;49.704;9.908;2023-06-19T00:26:49;26.20;44.10
27671;DHT22;15077;49.704;9.908;2023-06-19T00:29:15;26.20;44.00
27671;DHT22;15077;49.704;9.908;2023-06-19T00:31:41;26.20;44.10
27671;DHT22;15077;49.704;9.908;2023-06-19T00:34:07;26.10;44.10
27671;DHT22;15077;49.704;9.908;2023-06-19T00:36:32;26.10;44.20
27671;DHT22;15077;49.704;9.908;2023-06-19T00:39:06;26.10;44.20
27671;DHT22;15077;49.704;9.908;2023-06-19T00:41:35;26.00;44.10
27671;DHT22;15077;49.704;9.908;2023-06-19T00:44:01;26.00;44.30
27671;DHT22;15077;49.704;9.908;2023-06-19T00:46:26;26.00;44.30
27671;DHT22;15077;49.704;9.908;2023-06-19T00:48:52;25.90;44.30
27671;DHT22;15077;49.704;9.908;2023-06-19T00:51:18;25.90;44.10
27671;DHT22;15077;49.704;9.908;2023-06-19T00:53:44;25.90;44.20
27671;DHT22;15077;49.704;9.908;2023-06-19T00:56:10;25.80;44.10
27671;DHT22;15077;49.704;9.908;2023-06-19T00:58:37;25.80;44.20
27671;DHT22;15077;49.704;9.908;2023-06-19T01:01:04;25.80;44.30
27671;DHT22;15077;49.704;9.908;2023-06-19T01:03:31;25.80;44.20
27671;DHT22;15077;49.704;9.908;2023-06-19T01:05:58;25.70;44.20
27671;DHT22;15077;49.704;9.908;2023-06-19T01:09:06;25.70;44.90
27671;DHT22;15077;49.704;9.908;2023-06-19T01:11:32;25.70;44.40
27671;DHT22;15077;49.704;9.908;2023-06-19T01:14:31;25.60;44.20
27671;DHT22;15077;49.704;9.908;2023-06-19T01:17:04;25.60;44.30
27671;DHT22;15077;49.704;9.908;2023-06-19T01:19:33;25.50;44.70
27671;DHT22;15077;49.704;9.908;2023-06-19T01:22:04;25.50;44.20
27671;DHT22;15077;49.704;9.908;2023-06-19T01:24:32;25.40;44.30
27671;DHT22;15077;49.704;9.908;2023-06-19T01:27:00;25.40;44.20
27671;DHT22;15077;49.704;9.908;2023-06-19T01:29:27;25.30;44.20
27671;DHT22;15077;49.704;9.908;2023-06-19T01:31:58;25.30;44.20
27671;DHT22;15077;49.704;9.908;2023-06-19T01:34:35;25.20;44.30
27671;DHT22;15077;49.704;9.908;2023-06-19T01:37:07;25.20;44.20
27671;DHT22;15077;49.704;9.908;2023-06-19T01:39:39;25.20;44.40
27671;DHT22;15077;49.704;9.908;2023-06-19T01:42:07;25.10;44.30
27671;DHT22;15077;49.704;9.908;2023-06-19T01:44:35;25.00;44.30
27671;DHT22;15077;49.704;9.908;2023-06-19T01:47:08;25.00;44.40
27671;DHT22;15077;49.704;9.908;2023-06-19T01:49:35;25.00;44.60
27671;DHT22;15077;49.704;9.908;2023-06-19T01:52:02;24.90;44.50
27671;DHT22;15077;49.704;9.908;2023-06-19T01:54:29;24.90;44.60
27671;DHT22;15077;49.704;9.908;2023-06-19T01:56:57;24.90;44.60
27671;DHT22;15077;49.704;9.908;2023-06-19T01:59:23;24.80;44.60
27671;DHT22;15077;49.704;9.908;2023-06-19T02:01:49;24.80;44.60
27671;DHT22;15077;49.704;9.908;2023-06-19T02:04:14;24.70;44.60
27671;DHT22;15077;49.704;9.908;2023-06-19T02:06:41;24.70;44.70
27671;DHT22;15077;49.704;9.908;2023-06-19T02:09:08;24.70;44.80
27671;DHT22;15077;49.704;9.908;2023-06-19T02:11:34;24.60;45.30
27671;DHT22;15077;49.704;9.908;2023-06-19T02:13:59;24.60;44.80
27671;DHT22;15077;49.704;9.908;2023-06-19T02:16:25;24.50;44.70
27671;DHT22;15077;49.704;9.908;2023-06-19T02:18:51;24.50;44.80
27671;DHT22;15077;49.704;9.908;2023-06-19T02:21:21;24.50;44.90
27671;DHT22;15077;49.704;9.908;2023-06-19T02:23:47;24.50;45.00
27671;DHT22;15077;49.704;9.908;2023-06-19T02:26:19;24.40;44.90
27671;DHT22;15077;49.704;9.908;2023-06-19T02:28:46;24.40;45.00
27671;DHT22;15077;49.704;9.908;2023-06-19T02:31:12;24.30;44.80
27671;DHT22;15077;49.704;9.908;2023-06-19T02:33:38;24.30;45.00
27671;DHT22;15077;49.704;9.908;2023-06-19T02:36:04;24.20;45.00
27671;DHT22;15077;49.704;9.908;2023-06-19T02:38:30;24.20;45.00
27671;DHT22;15077;49.704;9.908;2023-06-19T02:40:56;24.20;45.20
27671;DHT22;15077;49.704;9.908;2023-06-19T02:43:25;24.20;45.10
27671;DHT22;15077;49.704;9.908;2023-06-19T02:45:52;24.10;45.10
27671;DHT22;15077;49.704;9.908;2023-06-19T02:48:23;24.10;45.10
27671;DHT22;15077;49.704;9.908;2023-06-19T02:50:50;24.00;45.10
27671;DHT22;15077;49.704;9.908;2023-06-19T02:53:15;24.00;45.10
27671;DHT22;15077;49.704;9.908;2023-06-19T02:55:42;24.00;45.20
27671;DHT22;15077;49.704;9.908;2023-06-19T02:58:07;23.90;45.30
27671;DHT22;15077;49.704;9.908;2023-06-19T03:00:34;23.90;45.30
27671;DHT22;15077;49.704;9.908;2023-06-19T03:03:01;23.90;45.90
27671;DHT22;15077;49.704;9.908;2023-06-19T03:05:28;23.80;45.70
27671;DHT22;15077;49.704;9.908;2023-06-19T03:07:54;23.70;46.00
27671;DHT22;15077;49.704;9.908;2023-06-19T03:10:21;23.70;46.40
27671;DHT22;15077;49.704;9.908;2023-06-19T03:12:48;23.60;46.80
27671;DHT22;15077;49.704;9.908;2023-06-19T03:15:15;23.60;47.20
27671;DHT22;15077;49.704;9.908;2023-06-19T03:17:41;23.50;47.50
27671;DHT22;15077;49.704;9.908;2023-06-19T03:20:07;23.50;48.20
27671;DHT22;15077;49.704;9.908;2023-06-19T03:22:41;23.40;48.50
27671;DHT22;15077;49.704;9.908;2023-06-19T03:25:09;23.40;48.90
27671;DHT22;15077;49.704;9.908;2023-06-19T03:27:39;23.40;48.60
27671;DHT22;15077;49.704;9.908;2023-06-19T03:30:06;23.40;49.40
27671;DHT22;15077;49.704;9.908;2023-06-19T03:32:34;23.40;49.20
27671;DHT22;15077;49.704;9.908;2023-06-19T03:35:04;23.30;49.50
27671;DHT22;15077;49.704;9.908;2023-06-19T03:37:35;23.30;50.00
27671;DHT22;15077;49.704;9.908;2023-06-19T03:40:02;23.30;50.00
27671;DHT22;15077;49.704;9.908;2023-06-19T03:42:32;23.30;49.90
27671;DHT22;15077;49.704;9.908;2023-06-19T03:45:00;23.30;50.00
27671;DHT22;15077;49.704;9.908;2023-06-19T03:47:26;23.30;50.10
27671;DHT22;15077;49.704;9.908;2023-06-19T03:49:54;23.30;50.30
27671;DHT22;15077;49.704;9.908;2023-06-19T03:52:21;23.30;50.40
27671;DHT22;15077;49.704;9.908;2023-06-19T03:54:47;23.30;50.30
27671;DHT22;15077;49.704;9.908;2023-06-19T03:57:13;23.30;50.10
27671;DHT22;15077;49.704;9.908;2023-06-19T03:59:38;23.30;50.40
27671;DHT22;15077;49.704;9.908;2023-06-19T04:02:04;23.30;50.40
27671;DHT22;15077;49.704;9.908;2023-06-19T04:04:30;23.30;50.50
27671;DHT22;15077;49.704;9.908;2023-06-19T04:06:56;23.30;50.60
27671;DHT22;15077;49.704;9.908;2023-06-19T04:09:22;23.40;50.60
27671;DHT22;15077;49.704;9.908;2023-06-19T04:11:48;23.30;50.80
27671;DHT22;15077;49.704;9.908;2023-06-19T04:14:14;23.40;50.90
27671;DHT22;15077;49.704;9.908;2023-06-19T04:16:40;23.30;52.00
27671;DHT22;15077;49.704;9.908;2023-06-19T04:19:05;23.30;51.20
27671;DHT22;15077;49.704;9.908;2023-06-19T04:21:31;23.30;51.40
27671;DHT22;15077;49.704;9.908;2023-06-19T04:23:57;23.30;52.00
27671;DHT22;15077;49.704;9.908;2023-06-19T04:26:22;23.30;51.80
27671;DHT22;15077;49.704;9.908;2023-06-19T04:28:50;23.30;52.20
27671;DHT22;15077;49.704;9.908;2023-06-19T04:31:16;23.30;52.00
27671;DHT22;15077;49.704;9.908;2023-06-19T04:33:45;23.30;52.00
27671;DHT22;15077;49.704;9.908;2023-06-19T04:36:11;23.30;52.00
27671;DHT22;15077;49.704;9.908;2023-06-19T04:38:37;23.30;52.00
27671;DHT22;15077;49.704;9.908;2023-06-19T04:41:02;23.40;52.10
27671;DHT22;15077;49.704;9.908;2023-06-19T04:43:28;23.40;51.90
27671;DHT22;15077;49.704;9.908;2023-06-19T04:45:54;23.40;51.80
27671;DHT22;15077;49.704;9.908;2023-06-19T04:48:20;23.40;51.90
27671;DHT22;15077;49.704;9.908;2023-06-19T04:50:50;23.50;52.00
27671;DHT22;15077;49.704;9.908;2023-06-19T04:53:16;23.50;52.10
27671;DHT22;15077;49.704;9.908;2023-06-19T04:55:42;23.60;52.30
27671;DHT22;15077;49.704;9.908;2023-06-19T04:58:08;23.60;52.20
27671;DHT22;15077;49.704;9.908;2023-06-19T05:00:34;23.70;53.00
27671;DHT22;15077;49.704;9.908;2023-06-19T05:03:00;23.70;52.30
27671;DHT22;15077;49.704;9.908;2023-06-19T05:05:28;23.70;52.30
27671;DHT22;15077;49.704;9.908;2023-06-19T05:07:54;23.80;52.40
27671;DHT22;15077;49.704;9.908;2023-06-19T05:10:19;23.80;52.40
27671;DHT22;15077;49.704;9.908;2023-06-19T05:12:45;23.80;52.60
27671;DHT22;15077;49.704;9.908;2023-06-19T05:15:11;23.80;52.80
27671;DHT22;15077;49.704;9.908;2023-06-19T05:17:37;23.80;52.70
27671;DHT22;15077;49.704;9.908;2023-06-19T05:20:05;23.80;52.80
27671;DHT22;15077;49.704;9.908;2023-06-19T05:22:34;23.80;52.80
27671;DHT22;15077;49.704;9.908;2023-06-19T05:25:00;23.90;52.70
27671;DHT22;15077;49.704;9.908;2023-06-19T05:27:26;23.90;52.90
27671;DHT22;15077;49.704;9.908;2023-06-19T05:29:52;23.90;52.90
27671;DHT22;15077;49.704;9.908;2023-06-19T05:32:17;23.90;53.10
27671;DHT22;15077;49.704;9.908;2023-06-19T05:34:43;23.90;53.10
27671;DHT22;15077;49.704;9.908;2023-06-19T05:37:09;23.90;53.20
27671;DHT22;15077;49.704;9.908;2023-06-19T05:39:35;23.90;53.30
27671;DHT22;15077;49.704;9.908;2023-06-19T05:42:01;23.90;53.20
27671;DHT22;15077;49.704;9.908;2023-06-19T05:44:27;23.90;53.40
27671;DHT22;15077;49.704;9.908;2023-06-19T05:46:53;23.90;53.30
27671;DHT22;15077;49.704;9.908;2023-06-19T05:49:18;23.90;53.30
27671;DHT22;15077;49.704;9.908;2023-06-19T05:51:44;24.00;53.50
27671;DHT22;15077;49.704;9.908;2023-06-19T05:54:10;24.00;53.70
27671;DHT22;15077;49.704;9.908;2023-06-19T05:56:35;24.00;53.70
27671;DHT22;15077;49.704;9.908;2023-06-19T05:59:02;24.00;53.80
27671;DHT22;15077;49.704;9.908;2023-06-19T06:01:28;24.10;54.00
27671;DHT22;15077;49.704;9.908;2023-06-19T06:03:55;24.10;54.70
27671;DHT22;15077;49.704;9.908;2023-06-19T06:06:25;24.10;54.20
27671;DHT22;15077;49.704;9.908;2023-06-19T06:08:51;24.10;54.40
27671;DHT22;15077;49.704;9.908;2023-06-19T06:11:17;24.20;54.70
27671;DHT22;15077;49.704;9.908;2023-06-19T06:13:43;24.20;54.60
27671;DHT22;15077;49.704;9.908;2023-06-19T06:16:09;24.20;54.50
27671;DHT22;15077;49.704;9.908;2023-06-19T06:18:35;24.30;54.60
27671;DHT22;15077;49.704;9.908;2023-06-19T06:21:01;24.30;54.60
27671;DHT22;15077;49.704;9.908;2023-06-19T06:23:26;24.40;54.80
27671;DHT22;15077;49.704;9.908;2023-06-19T06:25:52;24.50;54.90
27671;DHT22;15077;49.704;9.908;2023-06-19T06:28:18;24.50;54.90
27671;DHT22;15077;49.704;9.908;2023-06-19T06:30:44;24.60;54.90
27671;DHT22;15077;49.704;9.908;2023-06-19T06:33:09;24.60;55.10
27671;DHT22;15077;49.704;9.908;2023-06-19T06:35:35;24.70;54.90
27671;DHT22;15077;49.704;9.908;2023-06-19T06:38:02;24.80;54.80
27671;DHT22;15077;49.704;9.908;2023-06-19T06:40:28;24.80;54.90
27671;DHT22;15077;49.704;9.908;2023-06-19T06:42:53;24.90;54.70
27671;DHT22;15077;49.704;9.908;2023-06-19T06:45:19;24.90;54.70
27671;DHT22;15077;49.704;9.908;2023-06-19T06:47:45;24.90;54.60
27671;DHT22;15077;49.704;9.908;2023-06-19T06:50:11;25.00;54.50
27671;DHT22;15077;49.704;9.908;2023-06-19T06:52:37;25.00;54.60
27671;DHT22;15077;49.704;9.908;2023-06-19T06:55:04;25.10;54.50
27671;DHT22;15077;49.704;9.908;2023-06-19T06:57:30;25.10;54.70
27671;DHT22;15077;49.704;9.908;2023-06-19T06:59:56;25.20;54.60
27671;DHT22;15077;49.704;9.908;2023-06-19T07:02:21;25.20;54.70
27671;DHT22;15077;49.704;9.908;2023-06-19T07:04:48;25.30;54.70
27671;DHT22;15077;49.704;9.908;2023-06-19T07:07:13;25.30;54.60
27671;DHT22;15077;49.704;9.908;2023-06-19T07:09:39;25.40;54.70
27671;DHT22;15077;49.704;9.908;2023-06-19T07:12:05;25.40;54.60
27671;DHT22;15077;49.704;9.908;2023-06-19T07:14:32;25.50;54.50
27671;DHT22;15077;49.704;9.908;2023-06-19T07:16:58;25.50;54.50
27671;DHT22;15077;49.704;9.908;2023-06-19T07:19:24;25.60;54.50
27671;DHT22;15077;49.704;9.908;2023-06-19T07:21:50;25.60;54.50
27671;DHT22;15077;49.704;9.908;2023-06-19T07:24:16;25.60;54.50
27671;DHT22;15077;49.704;9.908;2023-06-19T07:26:42;25.70;54.50
27671;DHT22;15077;49.704;9.908;2023-06-19T07:29:08;25.80;54.60
27671;DHT22;15077;49.704;9.908;2023-06-19T07:31:33;25.80;54.60
27671;DHT22;15077;49.704;9.908;2023-06-19T07:33:59;25.80;54.60
27671;DHT22;15077;49.704;9.908;2023-06-19T07:36:25;25.80;54.60
27671;DHT22;15077;49.704;9.908;2023-06-19T07:38:52;25.90;54.50
27671;DHT22;15077;49.704;9.908;2023-06-19T07:41:18;25.90;54.50
27671;DHT22;15077;49.704;9.908;2023-06-19T07:43:44;26.00;54.60
27671;DHT22;15077;49.704;9.908;2023-06-19T07:46:10;26.00;54.60
27671;DHT22;15077;49.704;9.908;2023-06-19T07:48:36;26.00;54.50
27671;DHT22;15077;49.704;9.908;2023-06-19T07:51:02;26.10;54.50
27671;DHT22;15077;49.704;9.908;2023-06-19T07:53:27;26.10;54.50
27671;DHT22;15077;49.704;9.908;2023-06-19T07:55:53;26.20;54.60
27671;DHT22;15077;49.704;9.908;2023-06-19T07:58:19;26.20;54.60
27671;DHT22;15077;49.704;9.908;2023-06-19T08:00:44;26.30;54.40
27671;DHT22;15077;49.704;9.908;2023-06-19T08:03:10;26.40;54.50
27671;DHT22;15077;49.704;9.908;2023-06-19T08:05:36;26.40;54.40
27671;DHT22;15077;49.704;9.908;2023-06-19T08:08:02;26.40;54.40
27671;DHT22;15077;49.704;9.908;2023-06-19T08:10:27;26.50;54.50
27671;DHT22;15077;49.704;9.908;2023-06-19T08:12:53;26.60;54.60
27671;DHT22;15077;49.704;9.908;2023-06-19T08:15:19;26.60;54.30
27671;DHT22;15077;49.704;9.908;2023-06-19T08:17:45;26.70;54.30
27671;DHT22;15077;49.704;9.908;2023-06-19T08:20:11;26.80;54.30
27671;DHT22;15077;49.704;9.908;2023-06-19T08:22:37;26.80;54.10
27671;DHT22;15077;49.704;9.908;2023-06-19T08:25:04;26.90;54.10
27671;DHT22;15077;49.704;9.908;2023-06-19T08:27:30;26.90;54.20
27671;DHT22;15077;49.704;9.908;2023-06-19T08:29:56;26.90;54.30
27671;DHT22;15077;49.704;9.908;2023-06-19T08:32:21;27.00;54.40
27671;DHT22;15077;49.704;9.908;2023-06-19T08:34:48;27.00;54.40
27671;DHT22;15077;49.704;9.908;2023-06-19T08:37:14;27.10;54.30
27671;DHT22;15077;49.704;9.908;2023-06-19T08:39:40;27.20;54.30
27671;DHT22;15077;49.704;9.908;2023-06-19T08:42:07;27.30;54.20
27671;DHT22;15077;49.704;9.908;2023-06-19T08:44:34;27.40;54.50
27671;DHT22;15077;49.704;9.908;2023-06-19T08:47:04;27.50;54.30
27671;DHT22;15077;49.704;9.908;2023-06-19T08:49:33;27.60;54.20
27671;DHT22;15077;49.704;9.908;2023-06-19T08:52:00;27.60;53.80
27671;DHT22;15077;49.704;9.908;2023-06-19T08:54:27;27.70;53.80
27671;DHT22;15077;49.704;9.908;2023-06-19T08:56:52;27.70;53.80
27671;DHT22;15077;49.704;9.908;2023-06-19T08:59:21;27.80;54.20
27671;DHT22;15077;49.704;9.908;2023-06-19T09:01:52;27.90;54.20
27671;DHT22;15077;49.704;9.908;2023-06-19T09:04:23;27.90;54.20
27671;DHT22;15077;49.704;9.908;2023-06-19T09:06:56;28.00;53.90
27671;DHT22;15077;49.704;9.908;2023-06-19T09:09:25;28.10;54.00
27671;DHT22;15077;49.704;9.908;2023-06-19T09:14:35;28.20;54.00
27671;DHT22;15077;49.704;9.908;2023-06-19T09:17:06;28.20;54.10
27671;DHT22;15077;49.704;9.908;2023-06-19T09:19:34;28.40;54.50
27671;DHT22;15077;49.704;9.908;2023-06-19T09:22:04;28.50;54.30
27671;DHT22;15077;49.704;9.908;2023-06-19T09:24:37;28.60;54.20
27671;DHT22;15077;49.704;9.908;2023-06-19T09:27:13;28.70;53.90
27671;DHT22;15077;49.704;9.908;2023-06-19T09:29:44;28.90;53.80
27671;DHT22;15077;49.704;9.908;2023-06-19T09:34:45;29.10;53.30
27671;DHT22;15077;49.704;9.908;2023-06-19T09:37:15;29.10;53.40
27671;DHT22;15077;49.704;9.908;2023-06-19T09:39:47;29.20;53.10
27671;DHT22;15077;49.704;9.908;2023-06-19T09:42:26;29.20;52.70
27671;DHT22;15077;49.704;9.908;2023-06-19T09:45:06;29.30;53.00
27671;DHT22;15077;49.704;9.908;2023-06-19T09:47:38;29.30;52.70
27671;DHT22;15077;49.704;9.908;2023-06-19T09:50:08;29.30;52.60
27671;DHT22;15077;49.704;9.908;2023-06-19T09:52:38;29.40;52.60
27671;DHT22;15077;49.704;9.908;2023-06-19T09:55:06;29.40;52.40
27671;DHT22;15077;49.704;9.908;2023-06-19T09:57:34;29.40;52.40
27671;DHT22;15077;49.704;9.908;2023-06-19T10:00:03;29.40;52.50
27671;DHT22;15077;49.704;9.908;2023-06-19T10:02:40;29.50;52.90
27671;DHT22;15077;49.704;9.908;2023-06-19T10:05:07;29.50;52.60
27671;DHT22;15077;49.704;9.908;2023-06-19T10:07:37;29.50;52.30
27671;DHT22;15077;49.704;9.908;2023-06-19T10:10:08;29.60;52.40
27671;DHT22;15077;49.704;9.908;2023-06-19T10:12:46;29.60;52.00
27671;DHT22;15077;49.704;9.908;2023-06-19T10:15:17;29.70;52.00
27671;DHT22;15077;49.704;9.908;2023-06-19T10:17:51;29.70;51.90
27671;DHT22;15077;49.704;9.908;2023-06-19T10:23:02;29.70;52.00
27671;DHT22;15077;49.704;9.908;2023-06-19T10:25:42;29.70;52.00
27671;DHT22;15077;49.704;9.908;2023-06-19T10:28:26;29.80;52.10
27671;DHT22;15077;49.704;9.908;2023-06-19T10:33:31;29.80;51.90
27671;DHT22;15077;49.704;9.908;2023-06-19T10:36:17;29.90;52.00
27671;DHT22;15077;49.704;9.908;2023-06-19T10:38:51;30.00;52.10
27671;DHT22;15077;49.704;9.908;2023-06-19T10:41:19;30.00;51.70
27671;DHT22;15077;49.704;9.908;2023-06-19T10:44:03;30.10;51.60
27671;DHT22;15077;49.704;9.908;2023-06-19T10:46:32;30.10;51.40
27671;DHT22;15077;49.704;9.908;2023-06-19T10:49:00;30.20;51.60
27671;DHT22;15077;49.704;9.908;2023-06-19T10:51:39;30.20;51.50
27671;DHT22;15077;49.704;9.908;2023-06-19T10:54:09;30.20;51.40
27671;DHT22;15077;49.704;9.908;2023-06-19T10:56:35;30.20;51.30
27671;DHT22;15077;49.704;9.908;2023-06-19T10:59:04;30.20;51.30
27671;DHT22;15077;49.704;9.908;2023-06-19T11:01:43;30.30;51.30
27671;DHT22;15077;49.704;9.908;2023-06-19T11:04:12;30.30;51.50
27671;DHT22;15077;49.704;9.908;2023-06-19T11:06:40;30.30;51.30
27671;DHT22;15077;49.704;9.908;2023-06-19T11:09:08;30.40;51.20
27671;DHT22;15077;49.704;9.908;2023-06-19T11:11:37;30.40;51.30
27671;DHT22;15077;49.704;9.908;2023-06-19T11:14:07;30.40;51.10
27671;DHT22;15077;49.704;9.908;2023-06-19T11:16:34;30.50;51.00
27671;DHT22;15077;49.704;9.908;2023-06-19T11:19:01;30.60;51.30
27671;DHT22;15077;49.704;9.908;2023-06-19T11:21:31;30.70;51.40
27671;DHT22;15077;49.704;9.908;2023-06-19T11:24:00;30.80;51.20
27671;DHT22;15077;49.704;9.908;2023-06-19T11:26:27;30.80;50.90
27671;DHT22;15077;49.704;9.908;2023-06-19T11:28:53;30.90;50.60
27671;DHT22;15077;49.704;9.908;2023-06-19T11:31:25;31.00;50.60
27671;DHT22;15077;49.704;9.908;2023-06-19T11:33:59;31.10;50.50
27671;DHT22;15077;49.704;9.908;2023-06-19T11:36:27;31.20;50.40
27671;DHT22;15077;49.704;9.908;2023-06-19T11:38:53;31.30;49.70
27671;DHT22;15077;49.704;9.908;2023-06-19T11:41:26;31.30;49.80
27671;DHT22;15077;49.704;9.908;2023-06-19T11:44:05;31.50;49.70
27671;DHT22;15077;49.704;9.908;2023-06-19T11:46:33;31.60;50.10
27671;DHT22;15077;49.704;9.908;2023-06-19T11:49:13;31.60;50.20
27671;DHT22;15077;49.704;9.908;2023-06-19T11:51:45;31.70;49.90
27671;DHT22;15077;49.704;9.908;2023-06-19T11:54:12;31.90;49.60
27671;DHT22;15077;49.704;9.908;2023-06-19T11:56:43;31.90;49.50
27671;DHT22;15077;49.704;9.908;2023-06-19T11:59:09;32.10;49.70
27671;DHT22;15077;49.704;9.908;2023-06-19T12:01:36;32.10;48.90
27671;DHT22;15077;49.704;9.908;2023-06-19T12:04:02;32.20;48.50
27671;DHT22;15077;49.704;9.908;2023-06-19T12:06:29;32.20;48.20
27671;DHT22;15077;49.704;9.908;2023-06-19T12:08:55;32.20;49.30
27671;DHT22;15077;49.704;9.908;2023-06-19T12:11:21;32.20;48.40
27671;DHT22;15077;49.704;9.908;2023-06-19T12:13:47;32.20;48.50
27671;DHT22;15077;49.704;9.908;2023-06-19T12:16:14;32.30;48.40
27671;DHT22;15077;49.704;9.908;2023-06-19T12:18:40;32.30;48.60
27671;DHT22;15077;49.704;9.908;2023-06-19T12:21:06;32.30;48.20
27671;DHT22;15077;49.704;9.908;2023-06-19T12:23:33;32.40;48.00
27671;DHT22;15077;49.704;9.908;2023-06-19T12:25:59;32.40;48.00
27671;DHT22;15077;49.704;9.908;2023-06-19T12:28:24;32.50;47.70
27671;DHT22;15077;49.704;9.908;2023-06-19T12:30:52;32.60;48.00
27671;DHT22;15077;49.704;9.908;2023-06-19T12:33:19;32.60;47.70
27671;DHT22;15077;49.704;9.908;2023-06-19T12:35:46;32.70;48.00
27671;DHT22;15077;49.704;9.908;2023-06-19T12:38:13;32.70;47.40
27671;DHT22;15077;49.704;9.908;2023-06-19T12:40:39;32.80;47.20
27671;DHT22;15077;49.704;9.908;2023-06-19T12:43:05;32.80;47.20
27671;DHT22;15077;49.704;9.908;2023-06-19T12:45:32;32.80;47.70
27671;DHT22;15077;49.704;9.908;2023-06-19T12:47:58;32.90;47.70
27671;DHT22;15077;49.704;9.908;2023-06-19T12:50:24;32.90;47.60
27671;DHT22;15077;49.704;9.908;2023-06-19T12:52:50;33.00;47.40
27671;DHT22;15077;49.704;9.908;2023-06-19T12:55:16;33.00;47.00
27671;DHT22;15077;49.704;9.908;2023-06-19T12:57:42;33.10;46.80
27671;DHT22;15077;49.704;9.908;2023-06-19T13:00:11;33.10;46.40
27671;DHT22;15077;49.704;9.908;2023-06-19T13:02:38;33.10;46.20
27671;DHT22;15077;49.704;9.908;2023-06-19T13:05:06;33.10;46.10
27671;DHT22;15077;49.704;9.908;2023-06-19T13:07:32;33.10;46.00
27671;DHT22;15077;49.704;9.908;2023-06-19T13:09:58;33.10;46.00
27671;DHT22;15077;49.704;9.908;2023-06-19T13:12:24;33.10;45.80
27671;DHT22;15077;49.704;9.908;2023-06-19T13:14:50;33.20;46.30
27671;DHT22;15077;49.704;9.908;2023-06-19T13:17:15;33.10;46.20
27671;DHT22;15077;49.704;9.908;2023-06-19T13:19:41;33.10;46.20
27671;DHT22;15077;49.704;9.908;2023-06-19T13:22:07;33.20;46.30
27671;DHT22;15077;49.704;9.908;2023-06-19T13:24:33;33.20;45.80
27671;DHT22;15077;49.704;9.908;2023-06-19T13:26:58;33.20;45.50
27671;DHT22;15077;49.704;9.908;2023-06-19T13:29:24;33.10;45.30
27671;DHT22;15077;49.704;9.908;2023-06-19T13:31:50;33.10;45.50
27671;DHT22;15077;49.704;9.908;2023-06-19T13:34:16;33.10;45.40
27671;DHT22;15077;49.704;9.908;2023-06-19T13:36:44;33.10;45.40
27671;DHT22;15077;49.704;9.908;2023-06-19T13:39:10;33.10;45.60
27671;DHT22;15077;49.704;9.908;2023-06-19T13:41:36;33.10;45.70
27671;DHT22;15077;49.704;9.908;2023-06-19T13:44:02;33.10;45.70
27671;DHT22;15077;49.704;9.908;2023-06-19T13:46:28;33.10;45.60
27671;DHT22;15077;49.704;9.908;2023-06-19T13:48:54;33.00;45.70
27671;DHT22;15077;49.704;9.908;2023-06-19T13:51:21;33.00;45.50
27671;DHT22;15077;49.704;9.908;2023-06-19T13:53:48;33.00;45.60
27671;DHT22;15077;49.704;9.908;2023-06-19T13:56:14;33.00;45.70
27671;DHT22;15077;49.704;9.908;2023-06-19T13:58:41;32.90;45.70
27671;DHT22;15077;49.704;9.908;2023-06-19T14:01:08;33.00;45.50
27671;DHT22;15077;49.704;9.908;2023-06-19T14:03:36;32.90;46.40
27671;DHT22;15077;49.704;9.908;2023-06-19T14:06:03;32.90;45.80
27671;DHT22;15077;49.704;9.908;2023-06-19T14:08:29;32.90;45.70
27671;DHT22;15077;49.704;9.908;2023-06-19T14:10:55;32.90;45.70
27671;DHT22;15077;49.704;9.908;2023-06-19T14:13:21;32.90;45.60
27671;DHT22;15077;49.704;9.908;2023-06-19T14:15:47;32.90;45.70
27671;DHT22;15077;49.704;9.908;2023-06-19T14:18:13;32.90;45.50
27671;DHT22;15077;49.704;9.908;2023-06-19T14:20:39;32.90;45.70
27671;DHT22;15077;49.704;9.908;2023-06-19T14:23:07;32.90;45.70
27671;DHT22;15077;49.704;9.908;2023-06-19T14:25:33;32.90;45.50
27671;DHT22;15077;49.704;9.908;2023-06-19T14:27:59;33.00;45.50
27671;DHT22;15077;49.704;9.908;2023-06-19T14:30:25;33.00;45.40
27671;DHT22;15077;49.704;9.908;2023-06-19T14:32:51;33.00;45.50
27671;DHT22;15077;49.704;9.908;2023-06-19T14:35:17;33.00;45.50
27671;DHT22;15077;49.704;9.908;2023-06-19T14:37:43;33.00;45.40
27671;DHT22;15077;49.704;9.908;2023-06-19T14:40:09;33.00;45.40
27671;DHT22;15077;49.704;9.908;2023-06-19T14:42:35;33.00;45.30
27671;DHT22;15077;49.704;9.908;2023-06-19T14:45:01;33.00;45.50
27671;DHT22;15077;49.704;9.908;2023-06-19T14:47:26;33.00;45.40
27671;DHT22;15077;49.704;9.908;2023-06-19T14:49:52;33.00;45.60
27671;DHT22;15077;49.704;9.908;2023-06-19T14:52:21;33.10;45.90
27671;DHT22;15077;49.704;9.908;2023-06-19T14:54:47;33.10;46.00
27671;DHT22;15077;49.704;9.908;2023-06-19T14:57:13;33.10;45.80
27671;DHT22;15077;49.704;9.908;2023-06-19T14:59:39;33.20;45.50
27671;DHT22;15077;49.704;9.908;2023-06-19T15:02:05;33.20;45.50
27671;DHT22;15077;49.704;9.908;2023-06-19T15:04:32;33.30;45.30
27671;DHT22;15077;49.704;9.908;2023-06-19T15:06:58;33.30;45.30
27671;DHT22;15077;49.704;9.908;2023-06-19T15:09:25;33.40;45.40
27671;DHT22;15077;49.704;9.908;2023-06-19T15:11:54;33.50;45.40
27671;DHT22;15077;49.704;9.908;2023-06-19T15:14:20;33.50;45.30
27671;DHT22;15077;49.704;9.908;2023-06-19T15:16:46;33.50;44.80
27671;DHT22;15077;49.704;9.908;2023-06-19T15:19:12;33.50;44.50
27671;DHT22;15077;49.704;9.908;2023-06-19T15:21:37;33.50;44.50
27671;DHT22;15077;49.704;9.908;2023-06-19T15:24:03;33.50;44.50
27671;DHT22;15077;49.704;9.908;2023-06-19T15:26:29;33.50;44.50
27671;DHT22;15077;49.704;9.908;2023-06-19T15:28:55;33.60;44.70
27671;DHT22;15077;49.704;9.908;2023-06-19T15:31:22;33.60;44.10
27671;DHT22;15077;49.704;9.908;2023-06-19T15:33:49;33.60;44.30
27671;DHT22;15077;49.704;9.908;2023-06-19T15:36:15;33.50;43.90
27671;DHT22;15077;49.704;9.908;2023-06-19T15:38:41;33.60;44.10
27671;DHT22;15077;49.704;9.908;2023-06-19T15:41:07;33.60;43.90
27671;DHT22;15077;49.704;9.908;2023-06-19T15:43:33;33.50;43.50